sensor_id;sensor_type;location;lat;lon;timestamp;temperature;humidity
10306;DHT22;5198;52.382;9.020;2022-07-23T00:02:41;16.20;99.90
10306;DHT22;5198;52.382;9.020;2022-07-23T00:06:44;16.10;99.90
10306;DHT22;5198;52.382;9.020;2022-07-23T00:10:47;16.10;99.90
10306;DHT22;5198;52.382;9.020;2022-07-23T00:14:51;16.00;99.90
10306;DHT22;5198;52.382;9.020;2022-07-23T00:18:54;15.90;99.90
10306;DHT22;5198;52.382;9.020;2022-07-23T00:22:57;15.90;99.90
10306;DHT22;5198;52.382;9.020;2022-07-23T00:27:00;15.80;99.90
10306;DHT22;5198;52.382;9.020;2022-07-23T00:31:05;15.80;99.90
10306;DHT22;5198;52.382;9.020;2022-07-23T00:35:08;15.80;99.90
10306;DHT22;5198;52.382;9.020;2022-07-23T00:39:11;15.70;99.90
10306;DHT22;5198;52.382;9.020;2022-07-23T00:43:14;15.70;99.90
10306;DHT22;5198;52.382;9.020;2022-07-23T00:47:18;15.60;99.90
10306;DHT22;5198;52.382;9.020;2022-07-23T00:51:21;15.60;99.90
10306;DHT22;5198;52.382;9.020;2022-07-23T00:55:24;15.60;99.90
10306;DHT22;5198;52.382;9.020;2022-07-23T00:59:26;15.60;99.90
10306;DHT22;5198;52.382;9.020;2022-07-23T01:03:31;15.60;99.90
10306;DHT22;5198;52.382;9.020;2022-07-23T01:07:34;15.60;99.90
10306;DHT22;5198;52.382;9.020;2022-07-23T01:11:37;15.60;99.90
10306;DHT22;5198;52.382;9.020;2022-07-23T01:15:40;15.50;99.90
10306;DHT22;5198;52.382;9.020;2022-07-23T01:19:44;15.50;99.90
10306;DHT22;5198;52.382;9.020;2022-07-23T01:23:48;15.60;99.90
10306;DHT22;5198;52.382;9.020;2022-07-23T01:27:51;15.60;99.90
10306;DHT22;5198;52.382;9.020;2022-07-23T01:31:55;15.60;99.90
10306;DHT22;5198;52.382;9.020;2022-07-23T01:35:57;15.60;99.90
10306;DHT22;5198;52.382;9.020;2022-07-23T01:40:02;15.60;99.90
10306;DHT22;5198;52.382;9.020;2022-07-23T01:44:06;15.60;99.90
10306;DHT22;5198;52.382;9.020;2022-07-23T01:48:09;15.60;99.90
10306;DHT22;5198;52.382;9.020;2022-07-23T01:52:12;15.60;99.90
10306;DHT22;5198;52.382;9.020;2022-07-23T01:56:16;15.60;99.90
10306;DHT22;5198;52.382;9.020;2022-07-23T02:00:20;15.60;99.90
10306;DHT22;5198;52.382;9.020;2022-07-23T02:04:23;15.60;99.90
10306;DHT22;5198;52.382;9.020;2022-07-23T02:08:26;15.60;99.90
10306;DHT22;5198;52.382;9.020;2022-07-23T02:12:31;15.60;99.90
10306;DHT22;5198;52.382;9.020;2022-07-23T02:16:34;15.60;99.90
10306;DHT22;5198;52.382;9.020;2022-07-23T02:20:37;15.70;99.90
10306;DHT22;5198;52.382;9.020;2022-07-23T02:24:41;15.70;99.90
10306;DHT22;5198;52.382;9.020;2022-07-23T02:28:45;15.70;99.90
10306;DHT22;5198;52.382;9.020;2022-07-23T02:32:48;15.70;99.90
10306;DHT22;5198;52.382;9.020;2022-07-23T02:36:51;15.70;99.90
10306;DHT22;5198;52.382;9.020;2022-07-23T02:40:54;15.70;99.90
10306;DHT22;5198;52.382;9.020;2022-07-23T02:44:58;15.80;99.90
10306;DHT22;5198;52.382;9.020;2022-07-23T02:49:01;15.80;99.90
10306;DHT22;5198;52.382;9.020;2022-07-23T02:53:07;15.80;99.90
10306;DHT22;5198;52.382;9.020;2022-07-23T02:57:12;15.80;99.90
10306;DHT22;5198;52.382;9.020;2022-07-23T03:01:16;15.80;99.90
10306;DHT22;5198;52.382;9.020;2022-07-23T03:05:21;15.80;99.90
10306;DHT22;5198;52.382;9.020;2022-07-23T03:09:24;15.80;99.90
10306;DHT22;5198;52.382;9.020;2022-07-23T03:13:27;15.80;99.90
10306;DHT22;5198;52.382;9.020;2022-07-23T03:17:33;15.80;99.90
10306;DHT22;5198;52.382;9.020;2022-07-23T03:21:38;15.80;99.90
10306;DHT22;5198;52.382;9.020;2022-07-23T03:25:42;15.80;99.90
10306;DHT22;5198;52.382;9.020;2022-07-23T03:29:45;15.80;99.90
10306;DHT22;5198;52.382;9.020;2022-07-23T03:33:49;15.70;99.90
10306;DHT22;5198;52.382;9.020;2022-07-23T03:37:52;15.70;99.90
10306;DHT22;5198;52.382;9.020;2022-07-23T03:41:54;15.70;99.90
10306;DHT22;5198;52.382;9.020;2022-07-23T03:45:57;15.70;99.90
10306;DHT22;5198;52.382;9.020;2022-07-23T03:50:01;15.70;99.90
10306;DHT22;5198;52.382;9.020;2022-07-23T03:54:04;15.70;99.90
10306;DHT22;5198;52.382;9.020;2022-07-23T03:58:07;15.60;99.90
10306;DHT22;5198;52.382;9.020;2022-07-23T04:02:10;15.60;99.90
10306;DHT22;5198;52.382;9.020;2022-07-23T04:06:14;15.60;99.90
10306;DHT22;5198;52.382;9.020;2022-07-23T04:10:17;15.60;99.90
10306;DHT22;5198;52.382;9.020;2022-07-23T04:14:20;15.60;99.90
10306;DHT22;5198;52.382;9.020;2022-07-23T04:18:23;15.60;99.90
10306;DHT22;5198;52.382;9.020;2022-07-23T04:22:28;15.60;99.90
10306;DHT22;5198;52.382;9.020;2022-07-23T04:26:30;15.70;99.90
10306;DHT22;5198;52.382;9.020;2022-07-23T04:30:33;15.70;99.90
10306;DHT22;5198;52.382;9.020;2022-07-23T04:34:36;15.70;99.90
10306;DHT22;5198;52.382;9.020;2022-07-23T04:38:40;15.70;99.90
10306;DHT22;5198;52.382;9.020;2022-07-23T04:42:44;15.70;99.90
10306;DHT22;5198;52.382;9.020;2022-07-23T04:46:46;15.70;99.90
10306;DHT22;5198;52.382;9.020;2022-07-23T04:50:51;15.70;99.90
10306;DHT22;5198;52.382;9.020;2022-07-23T04:54:55;15.70;99.90
10306;DHT22;5198;52.382;9.020;2022-07-23T04:58:58;15.70;99.90
10306;DHT22;5198;52.382;9.020;2022-07-23T05:03:01;15.70;99.90
10306;DHT22;5198;52.382;9.020;2022-07-23T05:07:04;15.70;99.90
10306;DHT22;5198;52.382;9.020;2022-07-23T05:11:08;15.70;99.90
10306;DHT22;5198;52.382;9.020;2022-07-23T05:15:11;15.70;99.90
10306;DHT22;5198;52.382;9.020;2022-07-23T05:19:17;15.70;99.90
10306;DHT22;5198;52.382;9.020;2022-07-23T05:23:25;15.70;99.90
10306;DHT22;5198;52.382;9.020;2022-07-23T05:27:29;15.80;99.90
10306;DHT22;5198;52.382;9.020;2022-07-23T05:31:32;15.80;99.90
10306;DHT22;5198;52.382;9.020;2022-07-23T05:35:35;15.80;99.90
10306;DHT22;5198;52.382;9.020;2022-07-23T05:39:38;15.90;99.90
10306;DHT22;5198;52.382;9.020;2022-07-23T05:43:42;15.90;99.90
10306;DHT22;5198;52.382;9.020;2022-07-23T05:47:47;15.90;99.90
10306;DHT22;5198;52.382;9.020;2022-07-23T05:51:50;16.00;99.90
10306;DHT22;5198;52.382;9.020;2022-07-23T05:55:53;16.00;99.90
10306;DHT22;5198;52.382;9.020;2022-07-23T05:59:57;16.10;99.90
10306;DHT22;5198;52.382;9.020;2022-07-23T06:04:00;16.20;99.90
10306;DHT22;5198;52.382;9.020;2022-07-23T06:08:03;16.20;99.90
10306;DHT22;5198;52.382;9.020;2022-07-23T06:12:07;16.30;99.90
10306;DHT22;5198;52.382;9.020;2022-07-23T06:16:11;16.30;99.90
10306;DHT22;5198;52.382;9.020;2022-07-23T06:20:14;16.40;99.90
10306;DHT22;5198;52.382;9.020;2022-07-23T06:24:17;16.50;99.90
10306;DHT22;5198;52.382;9.020;2022-07-23T06:28:20;16.50;99.90
10306;DHT22;5198;52.382;9.020;2022-07-23T06:32:24;16.60;99.90
10306;DHT22;5198;52.382;9.020;2022-07-23T06:40:54;16.70;99.90
10306;DHT22;5198;52.382;9.020;2022-07-23T06:44:57;16.80;99.90
10306;DHT22;5198;52.382;9.020;2022-07-23T06:49:02;16.90;99.90
10306;DHT22;5198;52.382;9.020;2022-07-23T06:53:07;17.00;99.90
10306;DHT22;5198;52.382;9.020;2022-07-23T06:57:10;17.10;99.90
10306;DHT22;5198;52.382;9.020;2022-07-23T07:01:12;17.20;99.90
10306;DHT22;5198;52.382;9.020;2022-07-23T07:05:17;17.30;99.90
10306;DHT22;5198;52.382;9.020;2022-07-23T07:09:20;17.40;99.90
10306;DHT22;5198;52.382;9.020;2022-07-23T07:13:22;17.60;99.90
10306;DHT22;5198;52.382;9.020;2022-07-23T07:17:25;17.70;99.90
10306;DHT22;5198;52.382;9.020;2022-07-23T07:21:30;17.80;99.90
10306;DHT22;5198;52.382;9.020;2022-07-23T07:25:33;18.00;99.90
10306;DHT22;5198;52.382;9.020;2022-07-23T07:29:35;18.10;99.90
10306;DHT22;5198;52.382;9.020;2022-07-23T07:33:38;18.20;99.90
10306;DHT22;5198;52.382;9.020;2022-07-23T07:37:42;18.30;99.90
10306;DHT22;5198;52.382;9.020;2022-07-23T07:41:45;18.40;99.90
10306;DHT22;5198;52.382;9.020;2022-07-23T07:45:48;18.50;99.90
10306;DHT22;5198;52.382;9.020;2022-07-23T07:49:51;18.50;99.90
10306;DHT22;5198;52.382;9.020;2022-07-23T07:53:56;18.70;99.90
10306;DHT22;5198;52.382;9.020;2022-07-23T07:57:59;18.70;99.90
10306;DHT22;5198;52.382;9.020;2022-07-23T08:30:27;19.30;99.90
10306;DHT22;5198;52.382;9.020;2022-07-23T08:34:31;19.40;99.90
10306;DHT22;5198;52.382;9.020;2022-07-23T08:38:33;19.60;99.90
10306;DHT22;5198;52.382;9.020;2022-07-23T08:42:37;19.80;99.90
10306;DHT22;5198;52.382;9.020;2022-07-23T08:46:41;19.80;99.90
10306;DHT22;5198;52.382;9.020;2022-07-23T08:50:45;19.90;99.90
10306;DHT22;5198;52.382;9.020;2022-07-23T08:54:49;20.00;99.90
10306;DHT22;5198;52.382;9.020;2022-07-23T08:58:53;20.20;99.90
10306;DHT22;5198;52.382;9.020;2022-07-23T09:02:57;20.40;99.90
10306;DHT22;5198;52.382;9.020;2022-07-23T09:07:00;20.50;99.90
10306;DHT22;5198;52.382;9.020;2022-07-23T09:11:04;20.70;99.90
10306;DHT22;5198;52.382;9.020;2022-07-23T09:15:07;20.80;99.90
10306;DHT22;5198;52.382;9.020;2022-07-23T09:19:12;20.80;99.90
10306;DHT22;5198;52.382;9.020;2022-07-23T09:23:15;20.90;99.90
10306;DHT22;5198;52.382;9.020;2022-07-23T09:27:18;21.00;99.90
10306;DHT22;5198;52.382;9.020;2022-07-23T09:31:21;21.10;99.90
10306;DHT22;5198;52.382;9.020;2022-07-23T09:35:26;21.30;99.90
10306;DHT22;5198;52.382;9.020;2022-07-23T09:39:47;21.40;99.90
10306;DHT22;5198;52.382;9.020;2022-07-23T09:43:56;21.40;99.90
10306;DHT22;5198;52.382;9.020;2022-07-23T09:48:09;21.60;99.90
10306;DHT22;5198;52.382;9.020;2022-07-23T09:52:14;21.90;99.90
10306;DHT22;5198;52.382;9.020;2022-07-23T10:00:31;22.50;99.90
10306;DHT22;5198;52.382;9.020;2022-07-23T10:04:34;22.70;99.90
10306;DHT22;5198;52.382;9.020;2022-07-23T10:08:40;22.90;99.90
10306;DHT22;5198;52.382;9.020;2022-07-23T10:12:44;23.00;99.90
10306;DHT22;5198;52.382;9.020;2022-07-23T10:17:03;23.00;99.90
10306;DHT22;5198;52.382;9.020;2022-07-23T10:21:07;23.10;99.90
10306;DHT22;5198;52.382;9.020;2022-07-23T10:25:12;23.10;99.90
10306;DHT22;5198;52.382;9.020;2022-07-23T10:29:21;23.10;99.90
10306;DHT22;5198;52.382;9.020;2022-07-23T10:33:29;23.20;99.90
10306;DHT22;5198;52.382;9.020;2022-07-23T10:37:35;23.30;99.90
10306;DHT22;5198;52.382;9.020;2022-07-23T10:41:40;23.40;99.90
10306;DHT22;5198;52.382;9.020;2022-07-23T10:45:43;23.40;99.90
10306;DHT22;5198;52.382;9.020;2022-07-23T10:49:48;23.50;99.90
10306;DHT22;5198;52.382;9.020;2022-07-23T10:53:55;23.60;99.90
10306;DHT22;5198;52.382;9.020;2022-07-23T10:58:00;23.70;99.90
10306;DHT22;5198;52.382;9.020;2022-07-23T23:37:54;17.00;96.70
10306;DHT22;5198;52.382;9.020;2022-07-23T23:41:59;17.00;96.90
10306;DHT22;5198;52.382;9.020;2022-07-23T23:46:02;16.90;96.90
10306;DHT22;5198;52.382;9.020;2022-07-23T23:50:08;16.80;96.60
10306;DHT22;5198;52.382;9.020;2022-07-23T23:54:13;16.70;96.30
10306;DHT22;5198;52.382;9.020;2022-07-23T23:58:19;16.60;96.90
